sensor_id;sensor_type;location;lat;lon;timestamp;P1;durP1;ratioP1;P2;durP2;ratioP2
35578;SDS011;21687;48.900;9.188;2023-04-07T00:00:15;14.43;;;10.37;;
35578;SDS011;21687;48.900;9.188;2023-04-07T00:02:42;14.67;;;10.83;;
35578;SDS011;21687;48.900;9.188;2023-04-07T00:05:08;14.80;;;10.47;;
35578;SDS011;21687;48.900;9.188;2023-04-07T00:07:34;13.93;;;10.07;;
35578;SDS011;21687;48.900;9.188;2023-04-07T00:10:01;16.07;;;10.73;;
35578;SDS011;21687;48.900;9.188;2023-04-07T00:12:27;17.53;;;11.63;;
35578;SDS011;21687;48.900;9.188;2023-04-07T00:14:53;15.23;;;10.67;;
35578;SDS011;21687;48.900;9.188;2023-04-07T00:17:19;14.70;;;10.33;;
35578;SDS011;21687;48.900;9.188;2023-04-07T00:19:46;12.87;;;10.23;;
35578;SDS011;21687;48.900;9.188;2023-04-07T00:22:12;16.00;;;10.80;;
35578;SDS011;21687;48.900;9.188;2023-04-07T00:24:38;12.27;;;9.87;;
35578;SDS011;21687;48.900;9.188;2023-04-07T00:27:04;21.03;;;13.90;;
35578;SDS011;21687;48.900;9.188;2023-04-07T00:29:31;14.40;;;10.37;;
35578;SDS011;21687;48.900;9.188;2023-04-07T00:31:57;12.97;;;9.63;;
35578;SDS011;21687;48.900;9.188;2023-04-07T00:34:23;12.03;;;9.83;;
35578;SDS011;21687;48.900;9.188;2023-04-07T00:36:49;13.90;;;9.57;;
35578;SDS011;21687;48.900;9.188;2023-04-07T00:39:16;15.73;;;10.47;;
35578;SDS011;21687;48.900;9.188;2023-04-07T00:41:44;15.20;;;10.10;;
35578;SDS011;21687;48.900;9.188;2023-04-07T00:44:10;15.73;;;9.93;;
35578;SDS011;21687;48.900;9.188;2023-04-07T00:46:37;12.57;;;9.47;;
35578;SDS011;21687;48.900;9.188;2023-04-07T00:49:04;12.37;;;9.57;;
35578;SDS011;21687;48.900;9.188;2023-04-07T00:51:31;14.17;;;9.77;;
35578;SDS011;21687;48.900;9.188;2023-04-07T00:53:58;13.47;;;9.60;;
35578;SDS011;21687;48.900;9.188;2023-04-07T00:56:26;13.07;;;9.87;;
35578;SDS011;21687;48.900;9.188;2023-04-07T00:58:52;12.63;;;10.17;;
35578;SDS011;21687;48.900;9.188;2023-04-07T01:01:23;14.60;;;9.90;;
35578;SDS011;21687;48.900;9.188;2023-04-07T01:06:50;15.00;;;9.70;;
35578;SDS011;21687;48.900;9.188;2023-04-07T01:09:24;11.23;;;8.93;;
35578;SDS011;21687;48.900;9.188;2023-04-07T01:14:49;11.73;;;8.67;;
35578;SDS011;21687;48.900;9.188;2023-04-07T01:17:20;13.10;;;8.90;;
35578;SDS011;21687;48.900;9.188;2023-04-07T01:19:52;12.67;;;8.90;;
35578;SDS011;21687;48.900;9.188;2023-04-07T01:22:25;13.63;;;8.33;;
35578;SDS011;21687;48.900;9.188;2023-04-07T01:30:49;13.67;;;8.57;;
35578;SDS011;21687;48.900;9.188;2023-04-07T01:33:18;11.07;;;7.87;;
35578;SDS011;21687;48.900;9.188;2023-04-07T01:35:45;10.37;;;8.40;;
35578;SDS011;21687;48.900;9.188;2023-04-07T01:38:12;11.60;;;7.90;;
35578;SDS011;21687;48.900;9.188;2023-04-07T01:40:39;12.40;;;8.33;;
35578;SDS011;21687;48.900;9.188;2023-04-07T01:43:06;11.63;;;8.80;;
35578;SDS011;21687;48.900;9.188;2023-04-07T01:45:33;13.73;;;9.73;;
35578;SDS011;21687;48.900;9.188;2023-04-07T01:48:01;11.53;;;8.20;;
35578;SDS011;21687;48.900;9.188;2023-04-07T01:50:30;12.87;;;8.80;;
35578;SDS011;21687;48.900;9.188;2023-04-07T01:52:58;10.93;;;9.13;;
35578;SDS011;21687;48.900;9.188;2023-04-07T01:55:25;11.33;;;8.37;;
35578;SDS011;21687;48.900;9.188;2023-04-07T01:57:52;9.97;;;7.93;;
35578;SDS011;21687;48.900;9.188;2023-04-07T02:00:18;12.40;;;8.60;;
35578;SDS011;21687;48.900;9.188;2023-04-07T02:02:45;11.27;;;8.53;;
35578;SDS011;21687;48.900;9.188;2023-04-07T02:05:16;12.67;;;8.47;;
35578;SDS011;21687;48.900;9.188;2023-04-07T02:07:48;13.40;;;8.63;;
35578;SDS011;21687;48.900;9.188;2023-04-07T02:10:27;12.83;;;8.63;;
35578;SDS011;21687;48.900;9.188;2023-04-07T02:12:56;14.83;;;9.40;;
35578;SDS011;21687;48.900;9.188;2023-04-07T02:15:24;11.53;;;9.00;;
35578;SDS011;21687;48.900;9.188;2023-04-07T02:17:52;12.03;;;8.30;;
35578;SDS011;21687;48.900;9.188;2023-04-07T02:20:20;12.63;;;9.10;;
35578;SDS011;21687;48.900;9.188;2023-04-07T02:22:47;13.27;;;9.23;;
35578;SDS011;21687;48.900;9.188;2023-04-07T02:25:20;10.47;;;8.60;;
35578;SDS011;21687;48.900;9.188;2023-04-07T02:27:46;14.70;;;9.27;;
35578;SDS011;21687;48.900;9.188;2023-04-07T02:30:13;11.47;;;9.03;;
35578;SDS011;21687;48.900;9.188;2023-04-07T02:32:39;13.13;;;8.37;;
35578;SDS011;21687;48.900;9.188;2023-04-07T02:35:06;11.27;;;8.60;;
35578;SDS011;21687;48.900;9.188;2023-04-07T02:37:32;12.43;;;9.07;;
35578;SDS011;21687;48.900;9.188;2023-04-07T02:39:58;9.83;;;8.37;;
35578;SDS011;21687;48.900;9.188;2023-04-07T02:42:25;11.77;;;8.27;;
35578;SDS011;21687;48.900;9.188;2023-04-07T02:44:51;12.47;;;9.00;;
35578;SDS011;21687;48.900;9.188;2023-04-07T02:47:17;10.50;;;8.13;;
35578;SDS011;21687;48.900;9.188;2023-04-07T02:49:43;12.10;;;9.10;;
35578;SDS011;21687;48.900;9.188;2023-04-07T02:52:10;13.80;;;9.73;;
35578;SDS011;21687;48.900;9.188;2023-04-07T02:54:36;11.90;;;8.50;;
35578;SDS011;21687;48.900;9.188;2023-04-07T02:57:02;13.13;;;9.33;;
35578;SDS011;21687;48.900;9.188;2023-04-07T02:59:28;13.47;;;9.07;;
35578;SDS011;21687;48.900;9.188;2023-04-07T03:01:55;13.23;;;9.13;;
35578;SDS011;21687;48.900;9.188;2023-04-07T03:04:21;12.80;;;8.83;;
35578;SDS011;21687;48.900;9.188;2023-04-07T03:06:47;14.27;;;9.23;;
35578;SDS011;21687;48.900;9.188;2023-04-07T03:09:13;11.87;;;8.63;;
35578;SDS011;21687;48.900;9.188;2023-04-07T03:11:40;12.63;;;8.80;;
35578;SDS011;21687;48.900;9.188;2023-04-07T03:14:06;14.30;;;8.90;;
35578;SDS011;21687;48.900;9.188;2023-04-07T03:16:33;11.67;;;9.30;;
35578;SDS011;21687;48.900;9.188;2023-04-07T03:19:02;11.63;;;8.57;;
35578;SDS011;21687;48.900;9.188;2023-04-07T03:21:28;12.13;;;9.70;;
35578;SDS011;21687;48.900;9.188;2023-04-07T03:23:56;12.43;;;9.17;;
35578;SDS011;21687;48.900;9.188;2023-04-07T03:26:22;12.07;;;9.30;;
35578;SDS011;21687;48.900;9.188;2023-04-07T03:28:48;12.43;;;9.20;;
35578;SDS011;21687;48.900;9.188;2023-04-07T03:31:14;13.27;;;9.00;;
35578;SDS011;21687;48.900;9.188;2023-04-07T03:33:41;14.67;;;9.57;;
35578;SDS011;21687;48.900;9.188;2023-04-07T03:36:07;12.10;;;8.67;;
35578;SDS011;21687;48.900;9.188;2023-04-07T03:38:34;12.93;;;9.20;;
35578;SDS011;21687;48.900;9.188;2023-04-07T03:41:00;13.27;;;9.60;;
35578;SDS011;21687;48.900;9.188;2023-04-07T03:43:26;15.13;;;9.83;;
35578;SDS011;21687;48.900;9.188;2023-04-07T03:45:53;12.77;;;9.50;;
35578;SDS011;21687;48.900;9.188;2023-04-07T03:48:19;14.00;;;9.73;;
35578;SDS011;21687;48.900;9.188;2023-04-07T03:50:45;12.73;;;9.10;;
35578;SDS011;21687;48.900;9.188;2023-04-07T03:53:12;11.30;;;8.97;;
35578;SDS011;21687;48.900;9.188;2023-04-07T03:55:40;11.27;;;8.97;;
35578;SDS011;21687;48.900;9.188;2023-04-07T03:58:08;14.40;;;9.57;;
35578;SDS011;21687;48.900;9.188;2023-04-07T04:00:34;12.00;;;9.33;;
35578;SDS011;21687;48.900;9.188;2023-04-07T04:03:00;11.33;;;8.77;;
35578;SDS011;21687;48.900;9.188;2023-04-07T04:05:27;11.93;;;9.20;;
35578;SDS011;21687;48.900;9.188;2023-04-07T04:07:53;14.77;;;9.50;;
35578;SDS011;21687;48.900;9.188;2023-04-07T04:10:20;13.00;;;9.37;;
35578;SDS011;21687;48.900;9.188;2023-04-07T04:12:47;11.97;;;9.23;;
35578;SDS011;21687;48.900;9.188;2023-04-07T04:15:14;10.90;;;8.57;;
35578;SDS011;21687;48.900;9.188;2023-04-07T04:17:40;13.93;;;9.43;;
35578;SDS011;21687;48.900;9.188;2023-04-07T04:20:07;12.20;;;9.03;;
35578;SDS011;21687;48.900;9.188;2023-04-07T04:22:33;14.97;;;10.10;;
35578;SDS011;21687;48.900;9.188;2023-04-07T04:25:00;14.07;;;9.43;;
35578;SDS011;21687;48.900;9.188;2023-04-07T04:27:26;15.17;;;9.60;;
35578;SDS011;21687;48.900;9.188;2023-04-07T04:29:53;11.47;;;8.93;;
35578;SDS011;21687;48.900;9.188;2023-04-07T04:32:19;12.53;;;9.60;;
35578;SDS011;21687;48.900;9.188;2023-04-07T04:34:45;14.03;;;9.27;;
35578;SDS011;21687;48.900;9.188;2023-04-07T04:37:11;12.90;;;9.10;;
35578;SDS011;21687;48.900;9.188;2023-04-07T04:39:38;12.47;;;9.07;;
35578;SDS011;21687;48.900;9.188;2023-04-07T04:42:04;12.43;;;9.53;;
35578;SDS011;21687;48.900;9.188;2023-04-07T04:44:31;15.57;;;10.20;;
35578;SDS011;21687;48.900;9.188;2023-04-07T04:46:57;13.17;;;9.83;;
35578;SDS011;21687;48.900;9.188;2023-04-07T04:49:23;14.47;;;10.00;;
35578;SDS011;21687;48.900;9.188;2023-04-07T04:51:49;16.17;;;10.33;;
35578;SDS011;21687;48.900;9.188;2023-04-07T04:54:17;14.07;;;10.50;;
35578;SDS011;21687;48.900;9.188;2023-04-07T04:56:44;13.40;;;9.70;;
35578;SDS011;21687;48.900;9.188;2023-04-07T04:59:10;12.60;;;9.63;;
35578;SDS011;21687;48.900;9.188;2023-04-07T05:01:36;12.67;;;9.60;;
35578;SDS011;21687;48.900;9.188;2023-04-07T05:04:02;12.63;;;9.73;;
35578;SDS011;21687;48.900;9.188;2023-04-07T05:06:29;15.73;;;10.43;;
35578;SDS011;21687;48.900;9.188;2023-04-07T05:08:55;11.97;;;9.33;;
35578;SDS011;21687;48.900;9.188;2023-04-07T05:11:21;14.03;;;9.57;;
35578;SDS011;21687;48.900;9.188;2023-04-07T05:13:47;14.60;;;10.23;;
35578;SDS011;21687;48.900;9.188;2023-04-07T05:16:14;12.67;;;10.10;;
35578;SDS011;21687;48.900;9.188;2023-04-07T05:18:40;13.23;;;9.87;;
35578;SDS011;21687;48.900;9.188;2023-04-07T05:21:06;12.57;;;9.60;;
35578;SDS011;21687;48.900;9.188;2023-04-07T05:23:32;15.37;;;9.90;;
35578;SDS011;21687;48.900;9.188;2023-04-07T05:25:59;15.00;;;9.73;;
35578;SDS011;21687;48.900;9.188;2023-04-07T05:28:26;14.10;;;10.50;;
35578;SDS011;21687;48.900;9.188;2023-04-07T05:30:52;15.90;;;10.13;;
35578;SDS011;21687;48.900;9.188;2023-04-07T05:33:18;13.33;;;10.20;;
35578;SDS011;21687;48.900;9.188;2023-04-07T05:35:45;13.00;;;9.87;;
35578;SDS011;21687;48.900;9.188;2023-04-07T05:38:11;14.57;;;9.40;;
35578;SDS011;21687;48.900;9.188;2023-04-07T05:40:38;12.90;;;9.57;;
35578;SDS011;21687;48.900;9.188;2023-04-07T05:43:05;12.80;;;9.43;;
35578;SDS011;21687;48.900;9.188;2023-04-07T05:45:31;13.17;;;9.67;;
35578;SDS011;21687;48.900;9.188;2023-04-07T05:47:57;14.53;;;10.30;;
35578;SDS011;21687;48.900;9.188;2023-04-07T05:50:23;13.77;;;9.70;;
35578;SDS011;21687;48.900;9.188;2023-04-07T05:52:49;13.10;;;9.93;;
35578;SDS011;21687;48.900;9.188;2023-04-07T05:55:16;13.27;;;9.37;;
35578;SDS011;21687;48.900;9.188;2023-04-07T05:57:42;14.33;;;10.70;;
35578;SDS011;21687;48.900;9.188;2023-04-07T06:00:09;12.67;;;10.03;;
35578;SDS011;21687;48.900;9.188;2023-04-07T06:02:35;14.00;;;10.00;;
35578;SDS011;21687;48.900;9.188;2023-04-07T06:05:03;13.67;;;9.80;;
35578;SDS011;21687;48.900;9.188;2023-04-07T06:07:30;12.80;;;9.87;;
35578;SDS011;21687;48.900;9.188;2023-04-07T06:09:57;13.10;;;9.53;;
35578;SDS011;21687;48.900;9.188;2023-04-07T06:12:23;13.27;;;10.10;;
35578;SDS011;21687;48.900;9.188;2023-04-07T06:14:53;12.53;;;9.90;;
35578;SDS011;21687;48.900;9.188;2023-04-07T06:17:20;12.90;;;9.40;;
35578;SDS011;21687;48.900;9.188;2023-04-07T06:19:46;12.33;;;9.53;;
35578;SDS011;21687;48.900;9.188;2023-04-07T06:22:13;12.77;;;9.77;;
35578;SDS011;21687;48.900;9.188;2023-04-07T06:24:39;12.93;;;9.70;;
35578;SDS011;21687;48.900;9.188;2023-04-07T06:27:05;14.60;;;9.40;;
35578;SDS011;21687;48.900;9.188;2023-04-07T06:29:32;14.67;;;8.73;;
35578;SDS011;21687;48.900;9.188;2023-04-07T06:31:59;13.10;;;9.87;;
35578;SDS011;21687;48.900;9.188;2023-04-07T06:34:26;11.67;;;9.33;;
35578;SDS011;21687;48.900;9.188;2023-04-07T06:36:52;13.33;;;9.10;;
35578;SDS011;21687;48.900;9.188;2023-04-07T06:39:18;12.10;;;9.50;;
35578;SDS011;21687;48.900;9.188;2023-04-07T06:41:45;14.47;;;9.60;;
35578;SDS011;21687;48.900;9.188;2023-04-07T06:44:11;11.37;;;9.07;;
35578;SDS011;21687;48.900;9.188;2023-04-07T06:46:38;13.00;;;9.47;;
35578;SDS011;21687;48.900;9.188;2023-04-07T06:49:06;12.63;;;10.10;;
35578;SDS011;21687;48.900;9.188;2023-04-07T06:51:32;12.73;;;9.73;;
35578;SDS011;21687;48.900;9.188;2023-04-07T06:53:58;15.77;;;9.60;;
35578;SDS011;21687;48.900;9.188;2023-04-07T06:56:24;12.10;;;9.43;;
35578;SDS011;21687;48.900;9.188;2023-04-07T06:58:51;12.40;;;8.97;;
35578;SDS011;21687;48.900;9.188;2023-04-07T07:01:17;12.07;;;9.23;;
35578;SDS011;21687;48.900;9.188;2023-04-07T07:03:43;12.63;;;9.17;;
35578;SDS011;21687;48.900;9.188;2023-04-07T07:06:10;12.80;;;9.33;;
35578;SDS011;21687;48.900;9.188;2023-04-07T07:08:36;12.30;;;9.23;;
35578;SDS011;21687;48.900;9.188;2023-04-07T07:11:03;12.23;;;9.20;;
35578;SDS011;21687;48.900;9.188;2023-04-07T07:13:29;13.47;;;9.70;;
35578;SDS011;21687;48.900;9.188;2023-04-07T07:15:55;13.83;;;9.57;;
35578;SDS011;21687;48.900;9.188;2023-04-07T07:18:22;12.00;;;9.30;;
35578;SDS011;21687;48.900;9.188;2023-04-07T07:20:48;11.70;;;8.70;;
35578;SDS011;21687;48.900;9.188;2023-04-07T07:23:15;10.60;;;8.47;;
35578;SDS011;21687;48.900;9.188;2023-04-07T07:25:41;12.87;;;9.43;;
35578;SDS011;21687;48.900;9.188;2023-04-07T07:28:07;12.03;;;9.23;;
35578;SDS011;21687;48.900;9.188;2023-04-07T07:30:33;11.43;;;8.57;;
35578;SDS011;21687;48.900;9.188;2023-04-07T07:33:00;12.20;;;8.87;;
35578;SDS011;21687;48.900;9.188;2023-04-07T07:35:26;12.60;;;9.13;;
35578;SDS011;21687;48.900;9.188;2023-04-07T07:37:52;11.27;;;8.80;;
35578;SDS011;21687;48.900;9.188;2023-04-07T07:40:19;12.10;;;8.37;;
35578;SDS011;21687;48.900;9.188;2023-04-07T07:42:45;10.40;;;7.60;;
35578;SDS011;21687;48.900;9.188;2023-04-07T07:45:11;10.13;;;7.60;;
35578;SDS011;21687;48.900;9.188;2023-04-07T07:47:38;10.67;;;7.40;;
35578;SDS011;21687;48.900;9.188;2023-04-07T07:50:05;8.87;;;7.53;;
35578;SDS011;21687;48.900;9.188;2023-04-07T07:52:31;8.97;;;8.03;;
35578;SDS011;21687;48.900;9.188;2023-04-07T07:54:57;11.77;;;7.20;;
35578;SDS011;21687;48.900;9.188;2023-04-07T07:57:24;8.07;;;6.57;;
35578;SDS011;21687;48.900;9.188;2023-04-07T07:59:50;7.83;;;5.93;;
35578;SDS011;21687;48.900;9.188;2023-04-07T08:02:17;7.20;;;6.30;;
35578;SDS011;21687;48.900;9.188;2023-04-07T08:04:44;7.07;;;6.13;;
35578;SDS011;21687;48.900;9.188;2023-04-07T08:07:10;8.30;;;6.30;;
35578;SDS011;21687;48.900;9.188;2023-04-07T08:09:40;11.23;;;6.77;;
35578;SDS011;21687;48.900;9.188;2023-04-07T08:12:06;7.37;;;5.97;;
35578;SDS011;21687;48.900;9.188;2023-04-07T08:14:32;7.67;;;6.10;;
35578;SDS011;21687;48.900;9.188;2023-04-07T08:16:59;7.57;;;6.00;;
35578;SDS011;21687;48.900;9.188;2023-04-07T08:19:25;7.77;;;5.47;;
35578;SDS011;21687;48.900;9.188;2023-04-07T08:21:51;9.20;;;6.13;;
35578;SDS011;21687;48.900;9.188;2023-04-07T08:24:36;6.53;;;5.70;;
35578;SDS011;21687;48.900;9.188;2023-04-07T08:27:02;7.43;;;5.70;;
35578;SDS011;21687;48.900;9.188;2023-04-07T08:29:29;7.13;;;5.47;;
35578;SDS011;21687;48.900;9.188;2023-04-07T08:31:55;10.23;;;6.27;;
35578;SDS011;21687;48.900;9.188;2023-04-07T08:34:22;7.10;;;6.20;;
35578;SDS011;21687;48.900;9.188;2023-04-07T08:36:48;9.47;;;5.83;;
35578;SDS011;21687;48.900;9.188;2023-04-07T08:39:14;6.50;;;5.73;;
35578;SDS011;21687;48.900;9.188;2023-04-07T08:41:41;9.20;;;6.70;;
35578;SDS011;21687;48.900;9.188;2023-04-07T08:44:09;6.07;;;5.47;;
35578;SDS011;21687;48.900;9.188;2023-04-07T08:46:37;6.90;;;5.87;;
35578;SDS011;21687;48.900;9.188;2023-04-07T08:49:08;9.50;;;6.47;;
35578;SDS011;21687;48.900;9.188;2023-04-07T08:51:37;7.67;;;6.23;;
35578;SDS011;21687;48.900;9.188;2023-04-07T08:54:13;8.57;;;6.03;;
35578;SDS011;21687;48.900;9.188;2023-04-07T08:56:42;8.30;;;5.87;;
35578;SDS011;21687;48.900;9.188;2023-04-07T08:59:10;7.13;;;5.73;;
35578;SDS011;21687;48.900;9.188;2023-04-07T09:01:38;6.37;;;5.13;;
35578;SDS011;21687;48.900;9.188;2023-04-07T09:04:05;11.03;;;6.30;;
35578;SDS011;21687;48.900;9.188;2023-04-07T09:06:33;6.60;;;5.63;;
35578;SDS011;21687;48.900;9.188;2023-04-07T09:09:00;6.53;;;5.70;;
35578;SDS011;21687;48.900;9.188;2023-04-07T09:11:27;7.33;;;5.43;;
35578;SDS011;21687;48.900;9.188;2023-04-07T09:13:54;7.10;;;5.50;;
35578;SDS011;21687;48.900;9.188;2023-04-07T09:16:21;8.83;;;5.33;;
35578;SDS011;21687;48.900;9.188;2023-04-07T09:18:48;6.83;;;5.30;;
35578;SDS011;21687;48.900;9.188;2023-04-07T09:21:14;6.10;;;5.27;;
35578;SDS011;21687;48.900;9.188;2023-04-07T09:23:41;8.10;;;5.67;;
35578;SDS011;21687;48.900;9.188;2023-04-07T09:28:47;5.80;;;5.00;;
35578;SDS011;21687;48.900;9.188;2023-04-07T09:31:15;7.17;;;5.47;;
35578;SDS011;21687;48.900;9.188;2023-04-07T09:33:41;8.73;;;5.30;;
35578;SDS011;21687;48.900;9.188;2023-04-07T09:36:08;7.67;;;5.30;;
35578;SDS011;21687;48.900;9.188;2023-04-07T09:38:38;6.47;;;5.10;;
35578;SDS011;21687;48.900;9.188;2023-04-07T09:41:09;7.20;;;5.40;;
35578;SDS011;21687;48.900;9.188;2023-04-07T09:43:37;5.70;;;4.90;;
35578;SDS011;21687;48.900;9.188;2023-04-07T09:46:08;7.20;;;5.40;;
35578;SDS011;21687;48.900;9.188;2023-04-07T09:48:40;8.27;;;5.53;;
35578;SDS011;21687;48.900;9.188;2023-04-07T09:53:46;7.10;;;5.40;;
35578;SDS011;21687;48.900;9.188;2023-04-07T09:56:14;8.80;;;4.77;;
35578;SDS011;21687;48.900;9.188;2023-04-07T09:58:42;8.53;;;5.40;;
35578;SDS011;21687;48.900;9.188;2023-04-07T10:01:10;7.67;;;5.40;;
35578;SDS011;21687;48.900;9.188;2023-04-07T10:03:37;7.63;;;5.67;;
35578;SDS011;21687;48.900;9.188;2023-04-07T10:06:05;7.27;;;5.13;;
35578;SDS011;21687;48.900;9.188;2023-04-07T10:08:36;8.30;;;5.33;;
35578;SDS011;21687;48.900;9.188;2023-04-07T10:11:04;8.57;;;5.13;;
35578;SDS011;21687;48.900;9.188;2023-04-07T10:13:32;6.47;;;4.60;;
35578;SDS011;21687;48.900;9.188;2023-04-07T10:16:01;8.77;;;5.33;;
35578;SDS011;21687;48.900;9.188;2023-04-07T10:18:30;5.90;;;4.43;;
35578;SDS011;21687;48.900;9.188;2023-04-07T10:20:59;8.07;;;4.97;;
35578;SDS011;21687;48.900;9.188;2023-04-07T10:23:39;10.00;;;4.80;;
35578;SDS011;21687;48.900;9.188;2023-04-07T10:26:22;7.77;;;4.67;;
35578;SDS011;21687;48.900;9.188;2023-04-07T10:28:52;6.53;;;4.50;;
35578;SDS011;21687;48.900;9.188;2023-04-07T10:31:24;6.47;;;4.77;;
35578;SDS011;21687;48.900;9.188;2023-04-07T10:33:51;6.73;;;4.90;;
35578;SDS011;21687;48.900;9.188;2023-04-07T10:36:19;9.70;;;4.53;;
35578;SDS011;21687;48.900;9.188;2023-04-07T10:39:31;8.30;;;5.33;;
35578;SDS011;21687;48.900;9.188;2023-04-07T10:41:33;8.30;;;5.20;;
35578;SDS011;21687;48.900;9.188;2023-04-07T10:44:08;5.57;;;4.73;;
35578;SDS011;21687;48.900;9.188;2023-04-07T10:49:28;8.17;;;5.07;;
35578;SDS011;21687;48.900;9.188;2023-04-07T10:52:37;6.00;;;4.10;;
35578;SDS011;21687;48.900;9.188;2023-04-07T10:54:46;5.80;;;4.30;;
35578;SDS011;21687;48.900;9.188;2023-04-07T10:57:13;8.43;;;5.37;;
35578;SDS011;21687;48.900;9.188;2023-04-07T10:59:41;10.13;;;5.37;;
35578;SDS011;21687;48.900;9.188;2023-04-07T11:04:52;8.10;;;5.57;;
35578;SDS011;21687;48.900;9.188;2023-04-07T11:07:19;8.87;;;5.30;;
35578;SDS011;21687;48.900;9.188;2023-04-07T11:10:12;7.27;;;5.07;;
35578;SDS011;21687;48.900;9.188;2023-04-07T11:12:40;6.53;;;4.90;;
35578;SDS011;21687;48.900;9.188;2023-04-07T11:15:20;6.63;;;4.60;;
35578;SDS011;21687;48.900;9.188;2023-04-07T11:18:04;5.00;;;4.33;;
35578;SDS011;21687;48.900;9.188;2023-04-07T11:20:43;5.90;;;4.30;;
35578;SDS011;21687;48.900;9.188;2023-04-07T11:23:11;8.33;;;4.63;;
35578;SDS011;21687;48.900;9.188;2023-04-07T11:25:38;6.33;;;4.67;;
35578;SDS011;21687;48.900;9.188;2023-04-07T11:28:08;6.57;;;4.63;;
35578;SDS011;21687;48.900;9.188;2023-04-07T11:30:36;7.80;;;4.70;;
35578;SDS011;21687;48.900;9.188;2023-04-07T11:33:03;6.10;;;5.20;;
35578;SDS011;21687;48.900;9.188;2023-04-07T11:35:31;7.20;;;4.27;;
35578;SDS011;21687;48.900;9.188;2023-04-07T11:37:58;5.80;;;4.20;;
35578;SDS011;21687;48.900;9.188;2023-04-07T11:40:34;5.30;;;3.37;;
35578;SDS011;21687;48.900;9.188;2023-04-07T11:43:02;9.23;;;4.13;;
35578;SDS011;21687;48.900;9.188;2023-04-07T11:45:40;5.53;;;4.40;;
35578;SDS011;21687;48.900;9.188;2023-04-07T11:48:25;6.03;;;3.90;;
35578;SDS011;21687;48.900;9.188;2023-04-07T11:50:53;11.27;;;4.10;;
35578;SDS011;21687;48.900;9.188;2023-04-07T11:53:32;6.03;;;3.80;;
35578;SDS011;21687;48.900;9.188;2023-04-07T11:56:03;5.17;;;3.67;;
35578;SDS011;21687;48.900;9.188;2023-04-07T11:58:31;6.27;;;4.07;;
35578;SDS011;21687;48.900;9.188;2023-04-07T12:01:00;7.40;;;3.90;;
35578;SDS011;21687;48.900;9.188;2023-04-07T12:03:30;7.13;;;4.33;;
35578;SDS011;21687;48.900;9.188;2023-04-07T12:05:58;4.80;;;4.13;;
35578;SDS011;21687;48.900;9.188;2023-04-07T12:08:38;5.67;;;4.03;;
35578;SDS011;21687;48.900;9.188;2023-04-07T12:11:05;5.80;;;3.50;;
35578;SDS011;21687;48.900;9.188;2023-04-07T12:13:32;5.47;;;3.13;;
35578;SDS011;21687;48.900;9.188;2023-04-07T12:15:59;3.47;;;3.17;;
35578;SDS011;21687;48.900;9.188;2023-04-07T12:18:26;6.73;;;3.27;;
35578;SDS011;21687;48.900;9.188;2023-04-07T12:20:52;3.17;;;2.73;;
35578;SDS011;21687;48.900;9.188;2023-04-07T12:23:38;7.10;;;3.53;;
35578;SDS011;21687;48.900;9.188;2023-04-07T12:26:25;4.17;;;3.20;;
35578;SDS011;21687;48.900;9.188;2023-04-07T12:29:12;3.57;;;2.90;;
35578;SDS011;21687;48.900;9.188;2023-04-07T12:31:58;5.40;;;2.80;;
35578;SDS011;21687;48.900;9.188;2023-04-07T12:34:45;3.60;;;2.70;;
35578;SDS011;21687;48.900;9.188;2023-04-07T12:37:32;5.83;;;3.63;;
35578;SDS011;21687;48.900;9.188;2023-04-07T12:40:18;4.40;;;3.20;;
35578;SDS011;21687;48.900;9.188;2023-04-07T12:43:05;6.87;;;3.90;;
35578;SDS011;21687;48.900;9.188;2023-04-07T12:45:52;4.77;;;3.33;;
35578;SDS011;21687;48.900;9.188;2023-04-07T12:48:38;8.23;;;3.80;;
35578;SDS011;21687;48.900;9.188;2023-04-07T12:51:25;6.70;;;3.33;;
35578;SDS011;21687;48.900;9.188;2023-04-07T12:54:12;4.60;;;3.20;;
35578;SDS011;21687;48.900;9.188;2023-04-07T12:56:59;4.17;;;3.50;;
35578;SDS011;21687;48.900;9.188;2023-04-07T12:59:46;4.17;;;3.37;;
35578;SDS011;21687;48.900;9.188;2023-04-07T13:02:33;5.27;;;3.57;;
35578;SDS011;21687;48.900;9.188;2023-04-07T13:05:21;6.83;;;4.17;;
35578;SDS011;21687;48.900;9.188;2023-04-07T13:08:08;7.30;;;4.33;;
35578;SDS011;21687;48.900;9.188;2023-04-07T13:10:55;4.53;;;3.93;;
35578;SDS011;21687;48.900;9.188;2023-04-07T13:13:41;6.10;;;3.57;;
35578;SDS011;21687;48.900;9.188;2023-04-07T13:16:28;6.10;;;3.90;;
35578;SDS011;21687;48.900;9.188;2023-04-07T13:19:14;7.33;;;4.40;;
35578;SDS011;21687;48.900;9.188;2023-04-07T13:22:01;4.73;;;4.07;;
35578;SDS011;21687;48.900;9.188;2023-04-07T13:24:48;5.50;;;4.37;;
35578;SDS011;21687;48.900;9.188;2023-04-07T13:27:34;5.23;;;3.97;;
35578;SDS011;21687;48.900;9.188;2023-04-07T13:30:21;5.60;;;3.03;;
35578;SDS011;21687;48.900;9.188;2023-04-07T13:33:07;4.83;;;3.10;;
35578;SDS011;21687;48.900;9.188;2023-04-07T13:35:54;8.10;;;3.17;;
35578;SDS011;21687;48.900;9.188;2023-04-07T13:38:41;4.73;;;2.73;;
35578;SDS011;21687;48.900;9.188;2023-04-07T13:41:27;7.30;;;2.90;;
35578;SDS011;21687;48.900;9.188;2023-04-07T13:44:14;4.20;;;3.00;;
35578;SDS011;21687;48.900;9.188;2023-04-07T13:47:00;2.70;;;2.50;;
35578;SDS011;21687;48.900;9.188;2023-04-07T13:49:47;4.83;;;3.40;;
35578;SDS011;21687;48.900;9.188;2023-04-07T13:52:36;4.97;;;2.73;;
35578;SDS011;21687;48.900;9.188;2023-04-07T13:55:22;3.40;;;2.80;;
35578;SDS011;21687;48.900;9.188;2023-04-07T13:58:09;3.40;;;2.67;;
35578;SDS011;21687;48.900;9.188;2023-04-07T14:00:55;4.87;;;3.23;;
35578;SDS011;21687;48.900;9.188;2023-04-07T14:03:43;4.73;;;3.10;;
35578;SDS011;21687;48.900;9.188;2023-04-07T14:06:30;4.00;;;3.30;;
35578;SDS011;21687;48.900;9.188;2023-04-07T14:09:17;4.03;;;3.20;;
35578;SDS011;21687;48.900;9.188;2023-04-07T14:12:03;3.73;;;2.97;;
35578;SDS011;21687;48.900;9.188;2023-04-07T14:14:50;5.27;;;3.00;;
35578;SDS011;21687;48.900;9.188;2023-04-07T14:17:39;3.73;;;3.07;;
35578;SDS011;21687;48.900;9.188;2023-04-07T14:20:25;5.70;;;3.73;;
35578;SDS011;21687;48.900;9.188;2023-04-07T14:23:12;4.03;;;3.33;;
35578;SDS011;21687;48.900;9.188;2023-04-07T14:25:58;6.47;;;3.20;;
35578;SDS011;21687;48.900;9.188;2023-04-07T14:28:45;5.10;;;3.30;;
35578;SDS011;21687;48.900;9.188;2023-04-07T14:31:32;5.50;;;3.77;;
35578;SDS011;21687;48.900;9.188;2023-04-07T14:34:19;4.93;;;3.43;;
35578;SDS011;21687;48.900;9.188;2023-04-07T14:37:06;6.63;;;3.70;;
35578;SDS011;21687;48.900;9.188;2023-04-07T14:39:52;5.10;;;4.10;;
35578;SDS011;21687;48.900;9.188;2023-04-07T14:42:39;5.93;;;3.20;;
35578;SDS011;21687;48.900;9.188;2023-04-07T14:45:26;2.80;;;2.60;;
35578;SDS011;21687;48.900;9.188;2023-04-07T14:48:12;3.30;;;3.00;;
35578;SDS011;21687;48.900;9.188;2023-04-07T14:50:59;4.33;;;2.60;;
35578;SDS011;21687;48.900;9.188;2023-04-07T14:53:45;3.87;;;2.60;;
35578;SDS011;21687;48.900;9.188;2023-04-07T14:56:33;6.07;;;2.77;;
35578;SDS011;21687;48.900;9.188;2023-04-07T14:59:20;4.63;;;2.90;;
35578;SDS011;21687;48.900;9.188;2023-04-07T15:02:06;3.20;;;2.17;;
35578;SDS011;21687;48.900;9.188;2023-04-07T15:04:53;4.20;;;2.37;;
35578;SDS011;21687;48.900;9.188;2023-04-07T15:07:39;4.37;;;2.67;;
35578;SDS011;21687;48.900;9.188;2023-04-07T15:10:26;3.20;;;2.53;;
35578;SDS011;21687;48.900;9.188;2023-04-07T15:13:14;4.73;;;3.63;;
35578;SDS011;21687;48.900;9.188;2023-04-07T15:18:57;5.30;;;2.50;;
35578;SDS011;21687;48.900;9.188;2023-04-07T15:21:45;5.03;;;2.40;;
35578;SDS011;21687;48.900;9.188;2023-04-07T15:24:32;3.07;;;2.40;;
35578;SDS011;21687;48.900;9.188;2023-04-07T15:27:18;3.40;;;2.43;;